createdAt,value
2022-07-26T00:00:51.166Z,100432.50
2022-07-26T00:03:18.208Z,100431.00
2022-07-26T00:05:45.221Z,100429.59
2022-07-26T00:08:12.571Z,100419.06
2022-07-26T00:10:43.435Z,100421.88
2022-07-26T00:13:11.002Z,100412.44
2022-07-26T00:15:39.241Z,100425.09
2022-07-26T00:18:11.865Z,100422.31
2022-07-26T00:20:41.471Z,100427.03
2022-07-26T00:23:08.705Z,100426.38
2022-07-26T00:25:35.963Z,100422.94
2022-07-26T00:28:03.284Z,100423.38
2022-07-26T00:30:30.624Z,100421.53
2022-07-26T00:32:57.679Z,100420.03
2022-07-26T00:35:25.090Z,100420.13
2022-07-26T00:37:52.653Z,100420.34
2022-07-26T00:40:20.215Z,100416.91
2022-07-26T00:42:47.515Z,100417.34
2022-07-26T00:45:15.532Z,100420.28
2022-07-26T00:47:42.941Z,100419.66
2022-07-26T00:50:13.425Z,100413.72
2022-07-26T00:52:43.099Z,100412.22
2022-07-26T00:55:10.603Z,100417.78
2022-07-26T00:57:39.457Z,100412.72
2022-07-26T01:00:10.337Z,100396.09
2022-07-26T01:02:38.288Z,100403.50
2022-07-26T01:05:07.042Z,100394.78
2022-07-26T01:07:34.721Z,100400.25
2022-07-26T01:10:03.248Z,100397.78
2022-07-26T01:12:30.509Z,100397.03
2022-07-26T01:14:57.520Z,100400.88
2022-07-26T01:17:24.645Z,100396.66
2022-07-26T01:19:51.947Z,100396.13
2022-07-26T01:22:18.957Z,100394.59
2022-07-26T01:24:45.998Z,100398.22
2022-07-26T01:27:13.830Z,100396.53
2022-07-26T01:29:41.260Z,100401.13
2022-07-26T01:32:08.803Z,100393.28
2022-07-26T01:34:36.070Z,100389.09
2022-07-26T01:37:03.837Z,100384.69
2022-07-26T01:39:30.875Z,100386.81
2022-07-26T01:41:59.373Z,100385.19
2022-07-26T01:44:26.512Z,100381.75
2022-07-26T01:46:53.466Z,100386.34
2022-07-26T01:49:21.051Z,100382.63
2022-07-26T01:51:48.395Z,100383.38
2022-07-26T01:54:15.370Z,100380.50
2022-07-26T01:56:49.939Z,100377.81
2022-07-26T01:59:17.001Z,100378.88
2022-07-26T02:01:44.070Z,100387.22
2022-07-26T02:04:31.412Z,100388.38
2022-07-26T02:06:58.434Z,100391.22
2022-07-26T02:09:25.916Z,100394.97
2022-07-26T02:11:55.155Z,100386.28
2022-07-26T02:14:25.749Z,100394.53
2022-07-26T02:17:00.076Z,100386.00
2022-07-26T02:19:31.582Z,100388.97
2022-07-26T02:21:59.217Z,100389.16
2022-07-26T02:24:30.779Z,100385.72
2022-07-26T02:26:59.591Z,100381.41
2022-07-26T02:29:28.238Z,100386.88
2022-07-26T02:31:56.455Z,100390.50
2022-07-26T02:34:23.703Z,100386.31
2022-07-26T02:36:51.056Z,100381.13
2022-07-26T02:39:18.401Z,100388.13
2022-07-26T02:41:45.634Z,100384.69
2022-07-26T02:44:13.087Z,100374.06
2022-07-26T02:46:40.242Z,100376.00
2022-07-26T02:49:07.557Z,100375.00
2022-07-26T02:51:34.968Z,100376.53
2022-07-26T02:54:01.981Z,100370.16
2022-07-26T02:56:29.038Z,100378.63
2022-07-26T02:58:56.467Z,100375.47
2022-07-26T03:01:23.787Z,100372.34
2022-07-26T03:03:51.293Z,100382.56
2022-07-26T03:06:20.106Z,100378.41
2022-07-26T03:08:48.390Z,100377.97
2022-07-26T03:11:16.107Z,100380.53
2022-07-26T03:13:43.384Z,100381.22
2022-07-26T03:16:10.893Z,100387.84
2022-07-26T03:18:38.063Z,100380.06
2022-07-26T03:21:05.483Z,100385.94
2022-07-26T03:23:33.720Z,100374.59
2022-07-26T03:26:02.851Z,100370.84
2022-07-26T03:28:32.158Z,100368.91
2022-07-26T03:30:59.769Z,100375.34
2022-07-26T03:33:26.940Z,100374.63
2022-07-26T03:35:54.342Z,100371.91
2022-07-26T03:38:21.898Z,100382.25
2022-07-26T03:40:48.973Z,100377.84
2022-07-26T03:43:17.410Z,100374.25
2022-07-26T03:45:47.134Z,100381.47
2022-07-26T03:48:14.304Z,100378.13
2022-07-26T03:50:41.780Z,100373.09
2022-07-26T03:53:09.161Z,100373.47
2022-07-26T03:55:54.709Z,100372.00
2022-07-26T03:58:22.262Z,100376.97
2022-07-26T04:00:49.385Z,100369.19
2022-07-26T04:03:19.099Z,100363.09
2022-07-26T04:05:48.858Z,100367.84
2022-07-26T04:08:18.132Z,100372.66
2022-07-26T04:10:47.336Z,100361.88
2022-07-26T04:13:14.947Z,100363.75
2022-07-26T04:15:41.939Z,100364.50
2022-07-26T04:18:10.321Z,100363.00
2022-07-26T04:20:38.592Z,100364.84
2022-07-26T04:23:10.735Z,100364.28
2022-07-26T04:25:41.947Z,100365.84
2022-07-26T04:28:10.584Z,100365.97
2022-07-26T04:30:38.755Z,100364.00
2022-07-26T04:33:07.048Z,100371.47
2022-07-26T04:35:36.614Z,100364.97
2022-07-26T04:38:04.258Z,100361.66
2022-07-26T04:40:34.873Z,100368.56
2022-07-26T04:43:09.115Z,100357.34
2022-07-26T04:45:42.623Z,100354.81
2022-07-26T04:48:09.673Z,100360.78
2022-07-26T04:50:36.743Z,100364.66
2022-07-26T04:53:04.120Z,100373.53
2022-07-26T04:55:31.305Z,100362.97
2022-07-26T04:57:58.578Z,100364.78
2022-07-26T05:00:28.782Z,100363.63
2022-07-26T05:03:00.399Z,100367.25
2022-07-26T05:08:37.841Z,100364.13
2022-07-26T05:11:05.311Z,100369.56
2022-07-26T05:13:32.492Z,100363.25
2022-07-26T05:16:11.838Z,100368.38
2022-07-26T05:18:45.528Z,100369.88
2022-07-26T05:21:14.443Z,100358.19
2022-07-26T05:23:41.781Z,100349.34
2022-07-26T05:26:08.779Z,100362.50
2022-07-26T05:28:38.779Z,100353.66
2022-07-26T05:31:07.730Z,100360.84
2022-07-26T05:33:36.436Z,100359.28
2022-07-26T05:36:03.791Z,100368.09
2022-07-26T05:38:31.103Z,100363.19
2022-07-26T05:40:58.675Z,100363.81
2022-07-26T05:43:41.080Z,100358.25
2022-07-26T05:46:24.046Z,100355.28
2022-07-26T05:48:51.338Z,100364.91
2022-07-26T05:51:19.355Z,100361.09
2022-07-26T05:53:47.441Z,100356.31
2022-07-26T05:56:15.208Z,100355.13
2022-07-26T05:58:46.396Z,100351.28
2022-07-26T06:01:13.493Z,100351.09
2022-07-26T06:03:40.859Z,100349.19
2022-07-26T06:06:19.767Z,100341.16
2022-07-26T06:08:47.166Z,100345.81
2022-07-26T06:11:14.602Z,100347.66
2022-07-26T06:13:42.011Z,100342.72
2022-07-26T06:16:09.635Z,100352.47
2022-07-26T06:18:37.156Z,100345.41
2022-07-26T06:21:05.541Z,100342.97
2022-07-26T06:23:35.139Z,100337.47
2022-07-26T06:26:04.980Z,100339.78
2022-07-26T06:28:32.882Z,100331.06
2022-07-26T06:30:59.949Z,100326.59
2022-07-26T06:33:27.500Z,100332.31
2022-07-26T06:35:54.673Z,100329.16
2022-07-26T06:38:22.395Z,100323.53
2022-07-26T06:40:49.916Z,100324.78
2022-07-26T06:43:17.083Z,100320.63
2022-07-26T06:45:44.372Z,100321.00
2022-07-26T06:48:12.607Z,100317.41
2022-07-26T06:50:42.851Z,100312.63
2022-07-26T06:53:09.984Z,100319.03
2022-07-26T06:55:44.011Z,100312.75
2022-07-26T06:58:16.944Z,100311.03
2022-07-26T07:00:44.369Z,100306.66
2022-07-26T07:03:16.504Z,100307.78
2022-07-26T07:05:49.432Z,100305.94
2022-07-26T07:08:18.927Z,100316.63
2022-07-26T07:11:08.158Z,100304.16
2022-07-26T07:13:50.860Z,100294.69
2022-07-26T07:16:18.493Z,100295.38
2022-07-26T07:18:51.486Z,100303.03
2022-07-26T07:21:22.065Z,100304.28
2022-07-26T07:24:00.099Z,100297.16
2022-07-26T07:30:29.822Z,100296.81
2022-07-26T07:32:57.605Z,100289.75
2022-07-26T07:35:31.769Z,100291.44
2022-07-26T07:38:02.121Z,100289.97
2022-07-26T07:40:30.136Z,100288.31
2022-07-26T07:42:58.400Z,100291.38
2022-07-26T07:45:26.053Z,100285.28
2022-07-26T07:47:53.176Z,100287.91
2022-07-26T07:50:28.321Z,100288.34
2022-07-26T07:52:59.180Z,100288.34
2022-07-26T07:55:44.144Z,100293.44
2022-07-26T07:58:15.868Z,100284.66
2022-07-26T08:00:48.459Z,100281.59
2022-07-26T08:03:17.843Z,100286.22
2022-07-26T08:05:50.743Z,100282.00
2022-07-26T08:08:22.906Z,100284.56
2022-07-26T08:10:53.148Z,100286.47
2022-07-26T08:13:26.518Z,100287.16
2022-07-26T08:15:56.346Z,100274.28
2022-07-26T08:18:24.391Z,100274.81
2022-07-26T08:20:52.256Z,100286.22
2022-07-26T08:23:21.412Z,100281.78
2022-07-26T08:25:57.038Z,100293.84
2022-07-26T08:31:21.941Z,100281.47
2022-07-26T08:33:49.685Z,100279.50
2022-07-26T08:37:16.082Z,100277.72
2022-07-26T08:39:44.226Z,100274.31
2022-07-26T08:45:03.952Z,100265.63
2022-07-26T08:47:39.869Z,100263.97
2022-07-26T08:50:10.092Z,100273.47
2022-07-26T08:52:41.134Z,100266.91
2022-07-26T08:55:12.362Z,100267.78
2022-07-26T08:57:40.198Z,100259.91
2022-07-26T09:00:19.154Z,100264.69
2022-07-26T09:02:47.218Z,100259.31
2022-07-26T09:07:58.106Z,100275.16
2022-07-26T09:10:25.903Z,100274.16
2022-07-26T09:12:54.545Z,100267.50
2022-07-26T09:15:27.106Z,100265.19
2022-07-26T09:18:04.467Z,100251.84
2022-07-26T09:20:47.163Z,100254.81
2022-07-26T09:23:16.447Z,100250.00
2022-07-26T09:25:45.802Z,100248.06
2022-07-26T09:28:24.686Z,100249.81
2022-07-26T09:31:00.776Z,100252.84
2022-07-26T09:33:44.452Z,100242.72
2022-07-26T09:36:11.741Z,100260.28
2022-07-26T09:38:43.814Z,100250.03
2022-07-26T09:41:28.588Z,100250.66
2022-07-26T09:44:00.190Z,100243.81
2022-07-26T09:46:32.401Z,100252.44
2022-07-26T09:49:18.759Z,100243.56
2022-07-26T09:51:49.805Z,100236.06
2022-07-26T09:54:20.910Z,100244.56
2022-07-26T09:56:50.813Z,100237.13
2022-07-26T09:59:20.622Z,100246.81
2022-07-26T10:01:48.844Z,100249.38
2022-07-26T10:04:16.914Z,100235.66
2022-07-26T10:06:44.849Z,100231.97
2022-07-26T10:09:13.797Z,100239.47
2022-07-26T10:12:14.603Z,100226.03
2022-07-26T10:14:52.997Z,100222.78
2022-07-26T10:17:31.662Z,100230.06
2022-07-26T10:20:17.467Z,100228.03
2022-07-26T10:22:56.332Z,100221.03
2022-07-26T10:25:23.697Z,100226.00
2022-07-26T10:27:55.961Z,100213.78
2022-07-26T10:30:27.770Z,100216.34
2022-07-26T10:33:14.758Z,100217.97
2022-07-26T10:35:43.592Z,100214.19
2022-07-26T10:38:23.821Z,100210.91
2022-07-26T10:41:06.466Z,100215.22
2022-07-26T10:43:42.561Z,100215.44
2022-07-26T10:46:16.166Z,100213.47
2022-07-26T10:49:05.580Z,100202.97
2022-07-26T10:51:37.618Z,100206.19
2022-07-26T10:54:06.823Z,100196.50
2022-07-26T10:56:34.395Z,100197.34
2022-07-26T10:59:02.410Z,100199.63
2022-07-26T11:01:42.442Z,100202.81
2022-07-26T11:04:20.773Z,100194.22
2022-07-26T11:07:04.196Z,100197.00
2022-07-26T11:09:36.270Z,100189.50
2022-07-26T11:12:20.446Z,100183.19
2022-07-26T11:14:51.289Z,100178.47
2022-07-26T11:17:31.477Z,100173.34
2022-07-26T11:20:00.809Z,100174.63
2022-07-26T11:22:32.704Z,100177.13
2022-07-26T11:24:59.901Z,100161.88
2022-07-26T11:27:30.918Z,100157.78
2022-07-26T11:30:05.051Z,100156.63
2022-07-26T11:32:32.810Z,100149.88
2022-07-26T11:35:05.303Z,100150.38
2022-07-26T11:40:14.502Z,100139.34
2022-07-26T11:42:41.584Z,100130.47
2022-07-26T11:45:13.018Z,100133.38
2022-07-26T11:47:40.731Z,100134.31
2022-07-26T11:50:14.337Z,100122.75
2022-07-26T11:52:46.387Z,100129.69
2022-07-26T11:55:13.497Z,100131.41
2022-07-26T11:57:40.666Z,100129.56
2022-07-26T12:00:08.845Z,100123.69
2022-07-26T12:02:35.968Z,100108.13
2022-07-26T12:05:33.496Z,100106.25
2022-07-26T12:08:04.421Z,100096.56
2022-07-26T12:10:31.916Z,100097.81
2022-07-26T12:13:12.532Z,100093.31
2022-07-26T12:15:52.327Z,100090.81
2022-07-26T12:18:27.209Z,100084.91
2022-07-26T12:21:05.101Z,100095.13
2022-07-26T12:23:50.007Z,100083.13
2022-07-26T12:26:40.876Z,100100.56
2022-07-26T12:29:27.440Z,100076.88
2022-07-26T12:32:12.470Z,100077.88
2022-07-26T12:37:51.760Z,100067.88
2022-07-26T12:43:16.283Z,100056.28
2022-07-26T12:45:44.345Z,100063.63
2022-07-26T12:48:11.999Z,100063.59
2022-07-26T12:50:39.344Z,100062.06
2022-07-26T12:53:12.636Z,100056.19
2022-07-26T12:55:40.034Z,100051.53
2022-07-26T12:58:07.199Z,100046.03
2022-07-26T13:00:34.618Z,100045.22
2022-07-26T13:03:01.742Z,100050.44
2022-07-26T13:05:28.974Z,100045.16
2022-07-26T13:07:56.376Z,100043.50
2022-07-26T13:10:34.414Z,100049.88
2022-07-26T13:13:03.873Z,100040.66
2022-07-26T13:15:36.211Z,100038.59
2022-07-26T13:18:08.962Z,100047.41
2022-07-26T13:20:39.967Z,100036.03
2022-07-26T13:23:13.943Z,100041.94
2022-07-26T13:25:44.259Z,100036.44
2022-07-26T13:28:12.347Z,100034.97
2022-07-26T13:30:41.260Z,100033.09
2022-07-26T13:33:08.451Z,100041.09
2022-07-26T13:35:39.012Z,100031.81
2022-07-26T13:38:08.166Z,100029.31
2022-07-26T13:40:36.170Z,100035.22
2022-07-26T13:43:04.781Z,100026.59
2022-07-26T13:45:32.190Z,100026.56
2022-07-26T13:47:59.836Z,100022.13
2022-07-26T13:50:28.429Z,100025.31
2022-07-26T13:52:57.283Z,100027.63
2022-07-26T13:55:25.299Z,100022.31
2022-07-26T13:57:56.854Z,100017.69
2022-07-26T14:00:36.861Z,100008.09
2022-07-26T14:03:05.131Z,100016.81
2022-07-26T14:05:32.671Z,100017.03
2022-07-26T14:08:00.012Z,100004.38
2022-07-26T14:10:27.702Z,100009.06
2022-07-26T14:15:42.683Z,100009.28
2022-07-26T14:18:09.912Z,100006.09
2022-07-26T14:20:37.292Z,100004.66
2022-07-26T14:23:04.681Z,99999.16
2022-07-26T14:25:33.403Z,100000.41
2022-07-26T14:28:03.493Z,99999.13
2022-07-26T14:33:32.170Z,99999.97
2022-07-26T14:36:10.061Z,100003.78
2022-07-26T14:38:40.933Z,100010.94
2022-07-26T14:41:18.689Z,99996.38
2022-07-26T14:43:54.040Z,99990.69
2022-07-26T14:46:26.729Z,99993.84
2022-07-26T14:48:55.085Z,99987.09
2022-07-26T14:51:22.910Z,99989.00
2022-07-26T14:53:53.352Z,99981.00
2022-07-26T15:01:50.949Z,99980.75
2022-07-26T15:04:19.506Z,99976.75
2022-07-26T15:06:47.261Z,99972.94
2022-07-26T15:09:15.430Z,99969.56
2022-07-26T15:12:09.806Z,99972.09
2022-07-26T15:14:37.396Z,99967.47
2022-07-26T15:17:04.730Z,99958.38
2022-07-26T15:19:31.794Z,99962.81
2022-07-26T15:22:02.241Z,99960.50
2022-07-26T15:24:29.785Z,99961.75
2022-07-26T15:27:00.889Z,99963.84
2022-07-26T15:29:27.948Z,99958.38
2022-07-26T15:31:55.910Z,99963.84
2022-07-26T15:34:23.137Z,99961.72
2022-07-26T15:36:51.546Z,99963.16
2022-07-26T15:39:18.922Z,99966.34
2022-07-26T15:41:47.774Z,99966.53
2022-07-26T15:44:21.746Z,99968.84
2022-07-26T15:46:52.082Z,99969.69
2022-07-26T15:49:19.243Z,99970.94
2022-07-26T15:51:47.506Z,99982.75
2022-07-26T15:54:16.439Z,99975.97
2022-07-26T15:56:46.962Z,99980.00
2022-07-26T15:59:15.663Z,99976.00
2022-07-26T16:01:43.417Z,99977.25
2022-07-26T16:04:10.933Z,99980.63
2022-07-26T16:06:38.272Z,99976.38
2022-07-26T16:09:16.483Z,99986.50
2022-07-26T16:11:47.637Z,99976.81
2022-07-26T16:14:17.956Z,99986.06
2022-07-26T16:16:45.881Z,99986.94
2022-07-26T16:19:13.255Z,99985.44
2022-07-26T16:21:45.129Z,99990.25
2022-07-26T16:24:12.314Z,99987.84
2022-07-26T16:26:39.464Z,99987.84
2022-07-26T16:29:06.902Z,99987.16
2022-07-26T16:31:34.428Z,99995.38
2022-07-26T16:34:01.667Z,99991.78
2022-07-26T16:36:29.040Z,99998.09
2022-07-26T16:38:56.120Z,99991.97
2022-07-26T16:41:23.286Z,99986.94
2022-07-26T16:43:50.791Z,99985.00
2022-07-26T16:46:18.550Z,99992.97
2022-07-26T16:48:47.105Z,99992.09
2022-07-26T16:51:16.912Z,99990.81
2022-07-26T16:53:45.599Z,99996.22
2022-07-26T16:56:12.633Z,99997.34
2022-07-26T16:58:40.074Z,99997.50
2022-07-26T17:01:07.271Z,100001.00
2022-07-26T17:03:34.648Z,100004.69
2022-07-26T17:06:06.501Z,100000.88
2022-07-26T17:08:33.980Z,100001.38
2022-07-26T17:11:01.301Z,100007.81
2022-07-26T17:13:29.683Z,100018.03
2022-07-26T17:15:58.615Z,100011.84
2022-07-26T17:18:26.450Z,100008.97
2022-07-26T17:20:54.144Z,100013.06
2022-07-26T17:23:24.774Z,100008.09
2022-07-26T17:25:54.974Z,100008.34
2022-07-26T17:28:22.381Z,100030.97
2022-07-26T17:30:50.879Z,100024.97
2022-07-26T17:33:20.982Z,100017.06
2022-07-26T17:35:48.778Z,100017.06
2022-07-26T17:41:15.719Z,100020.59
2022-07-26T17:43:47.396Z,100016.97
2022-07-26T17:46:15.246Z,100021.75
2022-07-26T17:48:45.600Z,100023.22
2022-07-26T17:51:19.424Z,100029.91
2022-07-26T17:53:51.014Z,100024.25
2022-07-26T17:56:21.666Z,100032.34
2022-07-26T17:58:50.497Z,100037.50
2022-07-26T18:01:17.667Z,100036.22
2022-07-26T18:03:47.801Z,100037.81
2022-07-26T18:06:16.437Z,100041.28
2022-07-26T18:08:43.737Z,100043.53
2022-07-26T18:11:14.330Z,100043.06
2022-07-26T18:13:43.626Z,100045.31
2022-07-26T18:16:11.551Z,100046.66
2022-07-26T18:18:39.037Z,100048.72
2022-07-26T18:21:07.222Z,100054.34
2022-07-26T18:24:06.722Z,100059.13
2022-07-26T18:26:32.916Z,100061.34
2022-07-26T18:29:03.228Z,100059.13
2022-07-26T18:31:32.441Z,100060.81
2022-07-26T18:34:05.986Z,100066.25
2022-07-26T18:36:35.772Z,100073.84
2022-07-26T18:39:03.153Z,100072.31
2022-07-26T18:41:31.811Z,100077.06
2022-07-26T18:44:01.953Z,100079.06
2022-07-26T18:46:37.977Z,100080.22
2022-07-26T18:49:07.019Z,100082.72
2022-07-26T18:51:34.473Z,100085.84
2022-07-26T18:54:02.627Z,100096.66
2022-07-26T18:56:36.790Z,100086.63
2022-07-26T18:59:04.516Z,100085.72
2022-07-26T19:01:32.005Z,100079.22
2022-07-26T19:04:06.989Z,100087.03
2022-07-26T19:06:35.982Z,100094.47
2022-07-26T19:09:03.140Z,100080.38
2022-07-26T19:11:31.465Z,100085.59
2022-07-26T19:14:09.949Z,100091.66
2022-07-26T19:16:38.667Z,100089.03
2022-07-26T19:19:06.065Z,100080.97
2022-07-26T19:21:33.321Z,100090.03
2022-07-26T19:24:02.654Z,100088.09
2022-07-26T19:26:30.030Z,100089.91
2022-07-26T19:28:57.367Z,100087.13
2022-07-26T19:31:24.547Z,100079.22
2022-07-26T19:33:52.304Z,100082.00
2022-07-26T19:36:26.081Z,100078.53
2022-07-26T19:38:55.878Z,100083.28
2022-07-26T19:41:23.359Z,100089.44
2022-07-26T19:43:57.275Z,100086.22
2022-07-26T19:46:27.870Z,100084.13
2022-07-26T19:48:55.545Z,100089.41
2022-07-26T19:51:23.161Z,100096.31
2022-07-26T19:53:52.369Z,100098.78
2022-07-26T19:56:22.051Z,100093.88
2022-07-26T19:58:51.823Z,100102.44
2022-07-26T20:01:19.555Z,100093.50
2022-07-26T20:03:46.685Z,100093.53
2022-07-26T20:06:13.804Z,100096.13
2022-07-26T20:08:41.363Z,100100.09
2022-07-26T20:11:08.501Z,100108.09
2022-07-26T20:13:35.661Z,100109.22
2022-07-26T20:16:03.841Z,100114.09
2022-07-26T20:18:31.330Z,100108.09
2022-07-26T20:20:58.958Z,100113.94
2022-07-26T20:23:31.190Z,100109.84
2022-07-26T20:25:58.248Z,100120.66
2022-07-26T20:28:25.497Z,100124.31
2022-07-26T20:30:55.078Z,100128.31
2022-07-26T20:33:22.476Z,100129.47
2022-07-26T20:35:55.027Z,100125.16
2022-07-26T20:38:23.209Z,100137.97
2022-07-26T20:40:55.275Z,100134.81
2022-07-26T20:43:22.624Z,100142.22
2022-07-26T20:45:50.511Z,100141.06
2022-07-26T20:48:17.788Z,100137.25
2022-07-26T20:50:44.884Z,100142.81
2022-07-26T20:53:12.197Z,100145.06
2022-07-26T20:55:39.230Z,100144.47
2022-07-26T20:58:06.448Z,100145.50
2022-07-26T21:00:33.913Z,100139.50
2022-07-26T21:03:00.957Z,100145.88
2022-07-26T21:05:32.347Z,100142.47
2022-07-26T21:08:00.280Z,100147.03
2022-07-26T21:10:29.464Z,100149.16
2022-07-26T21:13:01.238Z,100140.47
2022-07-26T21:15:30.974Z,100145.31
2022-07-26T21:17:58.858Z,100146.44
2022-07-26T21:20:25.952Z,100151.13
2022-07-26T21:22:53.375Z,100143.44
2022-07-26T21:25:22.236Z,100150.25
2022-07-26T21:27:53.571Z,100148.69
2022-07-26T21:30:21.580Z,100142.00
2022-07-26T21:32:50.971Z,100143.25
2022-07-26T21:35:18.126Z,100149.94
2022-07-26T21:37:46.486Z,100150.47
2022-07-26T21:40:13.766Z,100152.72
2022-07-26T21:42:40.903Z,100145.19
2022-07-26T21:45:08.979Z,100144.88
2022-07-26T21:47:35.956Z,100148.22
2022-07-26T21:50:03.902Z,100158.56
2022-07-26T21:52:31.451Z,100151.00
2022-07-26T21:54:58.500Z,100149.56
2022-07-26T21:57:25.559Z,100152.66
2022-07-26T21:59:53.565Z,100152.06
2022-07-26T22:02:21.902Z,100154.19
2022-07-26T22:04:49.035Z,100146.50
2022-07-26T22:07:16.345Z,100152.16
2022-07-26T22:09:43.389Z,100140.91
2022-07-26T22:12:10.728Z,100141.19
2022-07-26T22:17:19.378Z,100144.69
2022-07-26T22:19:49.756Z,100152.03
2022-07-26T22:22:16.723Z,100143.47
2022-07-26T22:24:43.708Z,100150.72
2022-07-26T22:27:11.056Z,100141.06
2022-07-26T22:29:40.152Z,100144.72
2022-07-26T22:32:07.513Z,100138.75
2022-07-26T22:34:35.184Z,100133.63
2022-07-26T22:37:02.115Z,100136.72
2022-07-26T22:39:29.037Z,100131.88
2022-07-26T22:42:14.171Z,100135.63
2022-07-26T22:44:41.672Z,100144.09
2022-07-26T22:47:08.959Z,100145.06
2022-07-26T22:49:36.276Z,100145.34
2022-07-26T22:52:03.385Z,100143.78
2022-07-26T22:54:30.693Z,100145.59
2022-07-26T22:56:58.804Z,100135.81
2022-07-26T22:59:25.848Z,100133.13
2022-07-26T23:01:53.010Z,100135.09
2022-07-26T23:04:20.029Z,100129.94
2022-07-26T23:06:48.373Z,100122.16
2022-07-26T23:09:18.669Z,100124.22
2022-07-26T23:11:45.665Z,100120.22
2022-07-26T23:14:12.718Z,100120.72
2022-07-26T23:16:39.944Z,100124.66
2022-07-26T23:19:07.214Z,100125.78
2022-07-26T23:21:34.167Z,100125.91
2022-07-26T23:24:01.376Z,100118.94
2022-07-26T23:26:28.443Z,100124.44
2022-07-26T23:28:55.440Z,100130.81
2022-07-26T23:31:23.124Z,100131.91
2022-07-26T23:33:54.712Z,100128.50
2022-07-26T23:36:27.699Z,100128.63
2022-07-26T23:38:56.447Z,100126.94
2022-07-26T23:41:24.059Z,100130.69
2022-07-26T23:43:52.510Z,100130.97
2022-07-26T23:46:20.600Z,100128.41
2022-07-26T23:48:47.976Z,100128.66
2022-07-26T23:51:14.996Z,100125.25
2022-07-26T23:53:42.711Z,100122.91
2022-07-26T23:56:09.909Z,100122.44
2022-07-26T23:58:37.678Z,100129.91
